sensor_id;sensor_type;location;lat;lon;timestamp;P1;durP1;ratioP1;P2;durP2;ratioP2
73954;SDS011;62306;52.516;13.290;2023-02-17T00:01:10;55.03;;;27.33;;
73954;SDS011;62306;52.516;13.290;2023-02-17T00:03:39;50.03;;;27.05;;
73954;SDS011;62306;52.516;13.290;2023-02-17T00:06:06;47.25;;;26.02;;
73954;SDS011;62306;52.516;13.290;2023-02-17T00:08:34;49.08;;;27.42;;
73954;SDS011;62306;52.516;13.290;2023-02-17T00:11:03;55.22;;;28.27;;
73954;SDS011;62306;52.516;13.290;2023-02-17T00:13:30;52.40;;;27.58;;
73954;SDS011;62306;52.516;13.290;2023-02-17T00:15:57;49.72;;;27.20;;
73954;SDS011;62306;52.516;13.290;2023-02-17T00:18:25;52.72;;;27.65;;
73954;SDS011;62306;52.516;13.290;2023-02-17T00:20:52;52.42;;;25.63;;
73954;SDS011;62306;52.516;13.290;2023-02-17T00:23:18;51.75;;;27.10;;
73954;SDS011;62306;52.516;13.290;2023-02-17T00:25:45;60.67;;;30.52;;
73954;SDS011;62306;52.516;13.290;2023-02-17T00:28:14;53.30;;;28.60;;
73954;SDS011;62306;52.516;13.290;2023-02-17T00:30:40;53.55;;;27.13;;
73954;SDS011;62306;52.516;13.290;2023-02-17T00:33:07;51.72;;;28.67;;
73954;SDS011;62306;52.516;13.290;2023-02-17T00:35:37;51.53;;;28.48;;
73954;SDS011;62306;52.516;13.290;2023-02-17T00:38:05;52.72;;;29.38;;
73954;SDS011;62306;52.516;13.290;2023-02-17T00:40:32;55.25;;;28.48;;
73954;SDS011;62306;52.516;13.290;2023-02-17T00:42:59;51.72;;;28.52;;
73954;SDS011;62306;52.516;13.290;2023-02-17T00:45:27;52.38;;;27.55;;
73954;SDS011;62306;52.516;13.290;2023-02-17T00:47:54;52.33;;;28.17;;
73954;SDS011;62306;52.516;13.290;2023-02-17T00:50:21;48.78;;;27.75;;
73954;SDS011;62306;52.516;13.290;2023-02-17T00:52:48;51.92;;;27.90;;
73954;SDS011;62306;52.516;13.290;2023-02-17T00:55:15;49.92;;;27.45;;
73954;SDS011;62306;52.516;13.290;2023-02-17T00:57:42;52.53;;;27.92;;
73954;SDS011;62306;52.516;13.290;2023-02-17T01:00:09;51.47;;;27.40;;
73954;SDS011;62306;52.516;13.290;2023-02-17T01:02:38;50.75;;;27.83;;
73954;SDS011;62306;52.516;13.290;2023-02-17T01:05:06;50.65;;;28.52;;
73954;SDS011;62306;52.516;13.290;2023-02-17T01:07:33;49.55;;;27.70;;
73954;SDS011;62306;52.516;13.290;2023-02-17T01:10:01;50.92;;;28.25;;
73954;SDS011;62306;52.516;13.290;2023-02-17T01:12:28;52.08;;;28.48;;
73954;SDS011;62306;52.516;13.290;2023-02-17T01:14:55;52.83;;;28.83;;
73954;SDS011;62306;52.516;13.290;2023-02-17T01:17:22;54.42;;;28.50;;
73954;SDS011;62306;52.516;13.290;2023-02-17T01:19:50;50.45;;;29.00;;
73954;SDS011;62306;52.516;13.290;2023-02-17T01:22:17;51.63;;;28.40;;
73954;SDS011;62306;52.516;13.290;2023-02-17T01:24:44;52.70;;;28.45;;
73954;SDS011;62306;52.516;13.290;2023-02-17T01:27:11;51.30;;;29.60;;
73954;SDS011;62306;52.516;13.290;2023-02-17T01:29:38;54.85;;;28.58;;
73954;SDS011;62306;52.516;13.290;2023-02-17T01:32:05;53.47;;;27.90;;
73954;SDS011;62306;52.516;13.290;2023-02-17T01:34:32;49.92;;;28.00;;
73954;SDS011;62306;52.516;13.290;2023-02-17T01:37:00;49.05;;;27.67;;
73954;SDS011;62306;52.516;13.290;2023-02-17T01:39:27;51.33;;;28.15;;
73954;SDS011;62306;52.516;13.290;2023-02-17T01:41:54;53.88;;;28.95;;
73954;SDS011;62306;52.516;13.290;2023-02-17T01:44:22;53.38;;;28.90;;
73954;SDS011;62306;52.516;13.290;2023-02-17T01:46:50;53.33;;;29.60;;
73954;SDS011;62306;52.516;13.290;2023-02-17T01:49:20;55.38;;;29.02;;
73954;SDS011;62306;52.516;13.290;2023-02-17T01:51:51;53.17;;;28.65;;
73954;SDS011;62306;52.516;13.290;2023-02-17T01:54:23;52.17;;;28.60;;
73954;SDS011;62306;52.516;13.290;2023-02-17T01:56:54;54.85;;;27.92;;
73954;SDS011;62306;52.516;13.290;2023-02-17T01:59:24;51.20;;;28.38;;
73954;SDS011;62306;52.516;13.290;2023-02-17T02:01:51;61.13;;;29.85;;
73954;SDS011;62306;52.516;13.290;2023-02-17T02:04:23;53.40;;;29.15;;
73954;SDS011;62306;52.516;13.290;2023-02-17T02:06:53;50.50;;;27.65;;
73954;SDS011;62306;52.516;13.290;2023-02-17T02:09:21;53.35;;;29.88;;
73954;SDS011;62306;52.516;13.290;2023-02-17T02:11:56;58.97;;;30.13;;
73954;SDS011;62306;52.516;13.290;2023-02-17T02:14:24;62.05;;;30.98;;
73954;SDS011;62306;52.516;13.290;2023-02-17T02:16:53;58.05;;;28.92;;
73954;SDS011;62306;52.516;13.290;2023-02-17T02:19:39;101.18;;;55.90;;
73954;SDS011;62306;52.516;13.290;2023-02-17T02:22:32;65.88;;;31.60;;
73954;SDS011;62306;52.516;13.290;2023-02-17T02:25:24;59.38;;;30.23;;
73954;SDS011;62306;52.516;13.290;2023-02-17T02:28:12;54.15;;;29.35;;
73954;SDS011;62306;52.516;13.290;2023-02-17T02:30:58;60.03;;;29.33;;
73954;SDS011;62306;52.516;13.290;2023-02-17T02:33:36;56.67;;;30.27;;
73954;SDS011;62306;52.516;13.290;2023-02-17T02:36:10;65.80;;;31.48;;
73954;SDS011;62306;52.516;13.290;2023-02-17T02:38:40;64.30;;;30.38;;
73954;SDS011;62306;52.516;13.290;2023-02-17T02:41:14;57.90;;;29.92;;
73954;SDS011;62306;52.516;13.290;2023-02-17T02:43:46;59.58;;;30.98;;
73954;SDS011;62306;52.516;13.290;2023-02-17T02:46:14;55.28;;;30.40;;
73954;SDS011;62306;52.516;13.290;2023-02-17T02:48:42;58.15;;;31.10;;
73954;SDS011;62306;52.516;13.290;2023-02-17T02:51:21;61.88;;;31.23;;
73954;SDS011;62306;52.516;13.290;2023-02-17T02:53:57;57.90;;;31.45;;
73954;SDS011;62306;52.516;13.290;2023-02-17T02:56:45;63.53;;;32.60;;
73954;SDS011;62306;52.516;13.290;2023-02-17T02:59:22;57.42;;;31.45;;
73954;SDS011;62306;52.516;13.290;2023-02-17T03:02:01;57.70;;;30.42;;
73954;SDS011;62306;52.516;13.290;2023-02-17T03:04:35;59.22;;;30.40;;
73954;SDS011;62306;52.516;13.290;2023-02-17T03:07:05;78.57;;;41.78;;
73954;SDS011;62306;52.516;13.290;2023-02-17T03:09:47;61.80;;;31.30;;
73954;SDS011;62306;52.516;13.290;2023-02-17T03:12:15;62.92;;;31.73;;
73954;SDS011;62306;52.516;13.290;2023-02-17T03:14:42;60.10;;;31.23;;
73954;SDS011;62306;52.516;13.290;2023-02-17T03:17:10;61.28;;;32.13;;
73954;SDS011;62306;52.516;13.290;2023-02-17T03:19:38;61.97;;;31.95;;
73954;SDS011;62306;52.516;13.290;2023-02-17T03:22:06;61.30;;;32.13;;
73954;SDS011;62306;52.516;13.290;2023-02-17T03:24:37;61.80;;;30.73;;
73954;SDS011;62306;52.516;13.290;2023-02-17T03:27:04;62.88;;;32.33;;
73954;SDS011;62306;52.516;13.290;2023-02-17T03:29:31;67.32;;;32.75;;
73954;SDS011;62306;52.516;13.290;2023-02-17T03:31:58;61.55;;;31.65;;
73954;SDS011;62306;52.516;13.290;2023-02-17T03:34:26;65.88;;;33.38;;
73954;SDS011;62306;52.516;13.290;2023-02-17T03:36:54;64.38;;;32.47;;
73954;SDS011;62306;52.516;13.290;2023-02-17T03:39:21;61.50;;;33.33;;
73954;SDS011;62306;52.516;13.290;2023-02-17T03:41:48;65.03;;;33.15;;
73954;SDS011;62306;52.516;13.290;2023-02-17T03:44:15;66.07;;;32.58;;
73954;SDS011;62306;52.516;13.290;2023-02-17T03:46:43;62.30;;;33.05;;
73954;SDS011;62306;52.516;13.290;2023-02-17T03:49:10;62.60;;;32.63;;
73954;SDS011;62306;52.516;13.290;2023-02-17T03:51:37;63.58;;;32.40;;
73954;SDS011;62306;52.516;13.290;2023-02-17T03:54:05;64.85;;;32.92;;
73954;SDS011;62306;52.516;13.290;2023-02-17T03:56:32;61.78;;;31.65;;
73954;SDS011;62306;52.516;13.290;2023-02-17T03:58:59;61.13;;;32.45;;
73954;SDS011;62306;52.516;13.290;2023-02-17T04:01:26;60.30;;;31.65;;
73954;SDS011;62306;52.516;13.290;2023-02-17T04:03:53;63.35;;;31.95;;
73954;SDS011;62306;52.516;13.290;2023-02-17T04:06:20;64.72;;;33.17;;
73954;SDS011;62306;52.516;13.290;2023-02-17T04:08:47;56.92;;;31.33;;
73954;SDS011;62306;52.516;13.290;2023-02-17T04:11:16;61.42;;;30.60;;
73954;SDS011;62306;52.516;13.290;2023-02-17T04:13:42;56.92;;;30.60;;
73954;SDS011;62306;52.516;13.290;2023-02-17T04:16:11;61.20;;;30.80;;
73954;SDS011;62306;52.516;13.290;2023-02-17T04:18:38;56.28;;;29.98;;
73954;SDS011;62306;52.516;13.290;2023-02-17T04:21:05;52.60;;;28.73;;
73954;SDS011;62306;52.516;13.290;2023-02-17T04:23:32;59.45;;;30.58;;
73954;SDS011;62306;52.516;13.290;2023-02-17T04:26:00;56.40;;;31.08;;
73954;SDS011;62306;52.516;13.290;2023-02-17T04:28:29;56.17;;;29.85;;
73954;SDS011;62306;52.516;13.290;2023-02-17T04:30:56;53.50;;;30.17;;
73954;SDS011;62306;52.516;13.290;2023-02-17T04:33:24;52.80;;;29.10;;
73954;SDS011;62306;52.516;13.290;2023-02-17T04:35:52;51.60;;;28.42;;
73954;SDS011;62306;52.516;13.290;2023-02-17T04:38:23;49.67;;;27.40;;
73954;SDS011;62306;52.516;13.290;2023-02-17T04:40:52;52.35;;;28.52;;
73954;SDS011;62306;52.516;13.290;2023-02-17T04:43:20;53.47;;;28.17;;
73954;SDS011;62306;52.516;13.290;2023-02-17T04:45:48;53.97;;;29.63;;
73954;SDS011;62306;52.516;13.290;2023-02-17T04:48:16;54.13;;;28.90;;
73954;SDS011;62306;52.516;13.290;2023-02-17T04:50:43;54.78;;;29.48;;
73954;SDS011;62306;52.516;13.290;2023-02-17T04:53:10;53.17;;;28.42;;
73954;SDS011;62306;52.516;13.290;2023-02-17T04:55:38;54.08;;;27.52;;
73954;SDS011;62306;52.516;13.290;2023-02-17T04:58:05;47.88;;;26.25;;
73954;SDS011;62306;52.516;13.290;2023-02-17T05:00:33;66.60;;;36.22;;
73954;SDS011;62306;52.516;13.290;2023-02-17T05:03:01;59.03;;;29.23;;
73954;SDS011;62306;52.516;13.290;2023-02-17T05:05:28;50.45;;;28.42;;
73954;SDS011;62306;52.516;13.290;2023-02-17T05:07:55;49.83;;;27.20;;
73954;SDS011;62306;52.516;13.290;2023-02-17T05:10:22;46.53;;;27.33;;
73954;SDS011;62306;52.516;13.290;2023-02-17T05:12:49;66.05;;;35.97;;
73954;SDS011;62306;52.516;13.290;2023-02-17T05:15:16;54.70;;;32.58;;
73954;SDS011;62306;52.516;13.290;2023-02-17T05:17:44;50.90;;;27.65;;
73954;SDS011;62306;52.516;13.290;2023-02-17T05:20:12;50.67;;;28.15;;
73954;SDS011;62306;52.516;13.290;2023-02-17T05:22:39;53.35;;;28.52;;
73954;SDS011;62306;52.516;13.290;2023-02-17T05:25:06;52.58;;;27.73;;
73954;SDS011;62306;52.516;13.290;2023-02-17T05:27:34;50.80;;;28.33;;
73954;SDS011;62306;52.516;13.290;2023-02-17T05:30:01;46.47;;;26.88;;
73954;SDS011;62306;52.516;13.290;2023-02-17T05:32:28;51.97;;;28.70;;
73954;SDS011;62306;52.516;13.290;2023-02-17T05:34:55;49.05;;;27.25;;
73954;SDS011;62306;52.516;13.290;2023-02-17T05:37:23;53.55;;;27.65;;
73954;SDS011;62306;52.516;13.290;2023-02-17T05:39:50;51.95;;;27.85;;
73954;SDS011;62306;52.516;13.290;2023-02-17T05:42:17;56.05;;;28.65;;
73954;SDS011;62306;52.516;13.290;2023-02-17T05:44:44;56.03;;;28.40;;
73954;SDS011;62306;52.516;13.290;2023-02-17T05:47:10;67.13;;;38.60;;
73954;SDS011;62306;52.516;13.290;2023-02-17T05:49:37;58.03;;;33.47;;
73954;SDS011;62306;52.516;13.290;2023-02-17T05:52:04;47.63;;;27.58;;
73954;SDS011;62306;52.516;13.290;2023-02-17T05:54:33;56.13;;;28.05;;
73954;SDS011;62306;52.516;13.290;2023-02-17T05:56:59;57.17;;;28.85;;
73954;SDS011;62306;52.516;13.290;2023-02-17T05:59:26;52.05;;;28.10;;
73954;SDS011;62306;52.516;13.290;2023-02-17T06:01:53;58.65;;;27.80;;
73954;SDS011;62306;52.516;13.290;2023-02-17T06:04:20;49.47;;;27.33;;
73954;SDS011;62306;52.516;13.290;2023-02-17T06:06:47;48.00;;;26.58;;
73954;SDS011;62306;52.516;13.290;2023-02-17T06:09:14;51.40;;;27.33;;
73954;SDS011;62306;52.516;13.290;2023-02-17T06:11:42;51.10;;;27.85;;
73954;SDS011;62306;52.516;13.290;2023-02-17T06:14:09;52.67;;;28.25;;
73954;SDS011;62306;52.516;13.290;2023-02-17T06:16:36;49.08;;;28.00;;
73954;SDS011;62306;52.516;13.290;2023-02-17T06:19:03;45.80;;;26.35;;
73954;SDS011;62306;52.516;13.290;2023-02-17T06:21:30;58.13;;;34.42;;
73954;SDS011;62306;52.516;13.290;2023-02-17T06:23:57;55.70;;;30.70;;
73954;SDS011;62306;52.516;13.290;2023-02-17T06:26:24;51.22;;;26.38;;
73954;SDS011;62306;52.516;13.290;2023-02-17T06:28:52;49.50;;;26.52;;
73954;SDS011;62306;52.516;13.290;2023-02-17T06:31:19;50.15;;;26.25;;
73954;SDS011;62306;52.516;13.290;2023-02-17T06:33:46;46.75;;;25.73;;
73954;SDS011;62306;52.516;13.290;2023-02-17T06:36:13;48.58;;;25.67;;
73954;SDS011;62306;52.516;13.290;2023-02-17T06:38:40;41.60;;;23.27;;
73954;SDS011;62306;52.516;13.290;2023-02-17T06:41:07;44.17;;;24.83;;
73954;SDS011;62306;52.516;13.290;2023-02-17T06:43:34;48.70;;;25.58;;
73954;SDS011;62306;52.516;13.290;2023-02-17T06:46:03;46.40;;;25.38;;
73954;SDS011;62306;52.516;13.290;2023-02-17T06:48:30;45.22;;;25.05;;
73954;SDS011;62306;52.516;13.290;2023-02-17T06:50:57;87.03;;;48.53;;
73954;SDS011;62306;52.516;13.290;2023-02-17T06:53:24;43.60;;;25.65;;
73954;SDS011;62306;52.516;13.290;2023-02-17T06:55:51;45.05;;;24.23;;
73954;SDS011;62306;52.516;13.290;2023-02-17T06:58:18;43.78;;;23.95;;
73954;SDS011;62306;52.516;13.290;2023-02-17T07:00:45;44.15;;;23.63;;
73954;SDS011;62306;52.516;13.290;2023-02-17T07:03:13;43.72;;;23.80;;
73954;SDS011;62306;52.516;13.290;2023-02-17T07:05:40;45.80;;;23.77;;
73954;SDS011;62306;52.516;13.290;2023-02-17T07:08:07;43.72;;;23.40;;
73954;SDS011;62306;52.516;13.290;2023-02-17T07:10:35;44.40;;;27.30;;
73954;SDS011;62306;52.516;13.290;2023-02-17T07:13:02;50.28;;;29.17;;
73954;SDS011;62306;52.516;13.290;2023-02-17T07:15:29;42.15;;;24.17;;
73954;SDS011;62306;52.516;13.290;2023-02-17T07:17:56;40.80;;;23.50;;
73954;SDS011;62306;52.516;13.290;2023-02-17T07:20:25;41.97;;;23.88;;
73954;SDS011;62306;52.516;13.290;2023-02-17T07:22:52;38.53;;;22.95;;
73954;SDS011;62306;52.516;13.290;2023-02-17T07:25:19;43.00;;;23.27;;
73954;SDS011;62306;52.516;13.290;2023-02-17T07:27:46;40.28;;;23.42;;
73954;SDS011;62306;52.516;13.290;2023-02-17T07:30:13;58.85;;;35.42;;
73954;SDS011;62306;52.516;13.290;2023-02-17T07:32:40;36.03;;;21.95;;
73954;SDS011;62306;52.516;13.290;2023-02-17T07:35:07;36.80;;;21.02;;
73954;SDS011;62306;52.516;13.290;2023-02-17T07:37:35;35.30;;;20.52;;
73954;SDS011;62306;52.516;13.290;2023-02-17T07:40:02;34.85;;;20.83;;
73954;SDS011;62306;52.516;13.290;2023-02-17T07:42:29;36.75;;;20.60;;
73954;SDS011;62306;52.516;13.290;2023-02-17T07:44:56;32.95;;;20.10;;
73954;SDS011;62306;52.516;13.290;2023-02-17T07:47:23;34.40;;;20.20;;
73954;SDS011;62306;52.516;13.290;2023-02-17T07:49:50;33.65;;;19.88;;
73954;SDS011;62306;52.516;13.290;2023-02-17T07:52:17;30.83;;;18.50;;
73954;SDS011;62306;52.516;13.290;2023-02-17T07:54:45;32.63;;;18.20;;
73954;SDS011;62306;52.516;13.290;2023-02-17T07:57:12;33.28;;;18.65;;
73954;SDS011;62306;52.516;13.290;2023-02-17T07:59:39;31.88;;;19.52;;
73954;SDS011;62306;52.516;13.290;2023-02-17T08:02:08;29.50;;;17.58;;
73954;SDS011;62306;52.516;13.290;2023-02-17T08:04:36;30.55;;;17.83;;
73954;SDS011;62306;52.516;13.290;2023-02-17T08:07:03;30.52;;;18.10;;
73954;SDS011;62306;52.516;13.290;2023-02-17T08:09:30;28.13;;;17.20;;
73954;SDS011;62306;52.516;13.290;2023-02-17T08:12:16;32.92;;;21.25;;
73954;SDS011;62306;52.516;13.290;2023-02-17T08:15:02;30.23;;;19.10;;
73954;SDS011;62306;52.516;13.290;2023-02-17T08:17:29;29.42;;;17.63;;
73954;SDS011;62306;52.516;13.290;2023-02-17T08:19:56;28.25;;;17.42;;
73954;SDS011;62306;52.516;13.290;2023-02-17T08:22:23;24.70;;;16.95;;
73954;SDS011;62306;52.516;13.290;2023-02-17T08:24:50;30.77;;;17.48;;
73954;SDS011;62306;52.516;13.290;2023-02-17T08:27:18;27.23;;;17.35;;
73954;SDS011;62306;52.516;13.290;2023-02-17T08:29:46;26.13;;;16.58;;
73954;SDS011;62306;52.516;13.290;2023-02-17T08:32:14;26.63;;;16.65;;
73954;SDS011;62306;52.516;13.290;2023-02-17T08:34:42;30.05;;;17.48;;
73954;SDS011;62306;52.516;13.290;2023-02-17T08:37:10;32.88;;;17.85;;
73954;SDS011;62306;52.516;13.290;2023-02-17T08:39:37;27.02;;;18.15;;
73954;SDS011;62306;52.516;13.290;2023-02-17T08:42:04;27.63;;;17.77;;
73954;SDS011;62306;52.516;13.290;2023-02-17T08:44:34;26.95;;;17.55;;
73954;SDS011;62306;52.516;13.290;2023-02-17T08:47:02;32.40;;;17.95;;
73954;SDS011;62306;52.516;13.290;2023-02-17T08:49:30;36.65;;;22.50;;
73954;SDS011;62306;52.516;13.290;2023-02-17T08:51:57;37.63;;;24.23;;
73954;SDS011;62306;52.516;13.290;2023-02-17T08:54:24;38.50;;;18.10;;
73954;SDS011;62306;52.516;13.290;2023-02-17T08:56:52;30.55;;;18.98;;
73954;SDS011;62306;52.516;13.290;2023-02-17T08:59:19;28.40;;;17.98;;
73954;SDS011;62306;52.516;13.290;2023-02-17T09:01:47;25.27;;;17.23;;
73954;SDS011;62306;52.516;13.290;2023-02-17T09:04:14;28.25;;;16.50;;
73954;SDS011;62306;52.516;13.290;2023-02-17T09:06:43;26.20;;;16.92;;
73954;SDS011;62306;52.516;13.290;2023-02-17T09:09:12;30.27;;;17.33;;
73954;SDS011;62306;52.516;13.290;2023-02-17T09:11:40;26.35;;;17.90;;
73954;SDS011;62306;52.516;13.290;2023-02-17T09:14:07;32.03;;;17.83;;
73954;SDS011;62306;52.516;13.290;2023-02-17T09:16:34;40.38;;;22.90;;
73954;SDS011;62306;52.516;13.290;2023-02-17T09:19:03;29.73;;;18.98;;
73954;SDS011;62306;52.516;13.290;2023-02-17T09:21:30;29.27;;;17.40;;
73954;SDS011;62306;52.516;13.290;2023-02-17T09:23:57;33.38;;;18.35;;
73954;SDS011;62306;52.516;13.290;2023-02-17T09:26:24;34.45;;;18.50;;
73954;SDS011;62306;52.516;13.290;2023-02-17T09:28:51;32.47;;;19.25;;
73954;SDS011;62306;52.516;13.290;2023-02-17T09:31:19;36.67;;;19.33;;
73954;SDS011;62306;52.516;13.290;2023-02-17T09:33:47;29.73;;;17.70;;
73954;SDS011;62306;52.516;13.290;2023-02-17T09:36:17;28.38;;;17.63;;
73954;SDS011;62306;52.516;13.290;2023-02-17T09:38:46;28.08;;;17.10;;
73954;SDS011;62306;52.516;13.290;2023-02-17T09:41:14;33.13;;;20.55;;
73954;SDS011;62306;52.516;13.290;2023-02-17T09:43:43;29.65;;;18.80;;
73954;SDS011;62306;52.516;13.290;2023-02-17T09:46:12;29.48;;;19.15;;
73954;SDS011;62306;52.516;13.290;2023-02-17T09:48:41;32.25;;;19.85;;
73954;SDS011;62306;52.516;13.290;2023-02-17T09:51:13;30.80;;;17.55;;
73954;SDS011;62306;52.516;13.290;2023-02-17T09:53:50;29.70;;;18.67;;
73954;SDS011;62306;52.516;13.290;2023-02-17T09:56:23;32.17;;;19.33;;
73954;SDS011;62306;52.516;13.290;2023-02-17T09:58:56;31.47;;;19.13;;
73954;SDS011;62306;52.516;13.290;2023-02-17T10:01:27;35.58;;;19.17;;
73954;SDS011;62306;52.516;13.290;2023-02-17T10:03:58;31.15;;;19.08;;
73954;SDS011;62306;52.516;13.290;2023-02-17T10:06:33;41.90;;;19.42;;
73954;SDS011;62306;52.516;13.290;2023-02-17T10:09:03;35.08;;;20.45;;
73954;SDS011;62306;52.516;13.290;2023-02-17T10:11:36;32.78;;;20.27;;
73954;SDS011;62306;52.516;13.290;2023-02-17T10:14:08;34.53;;;21.50;;
73954;SDS011;62306;52.516;13.290;2023-02-17T10:16:40;33.83;;;20.45;;
73954;SDS011;62306;52.516;13.290;2023-02-17T10:19:13;28.92;;;18.70;;
73954;SDS011;62306;52.516;13.290;2023-02-17T10:21:47;35.53;;;20.02;;
73954;SDS011;62306;52.516;13.290;2023-02-17T10:24:22;32.35;;;20.55;;
73954;SDS011;62306;52.516;13.290;2023-02-17T10:26:53;34.00;;;20.08;;
73954;SDS011;62306;52.516;13.290;2023-02-17T10:29:30;31.63;;;19.33;;
73954;SDS011;62306;52.516;13.290;2023-02-17T10:32:19;39.78;;;21.33;;
73954;SDS011;62306;52.516;13.290;2023-02-17T10:34:51;34.72;;;19.58;;
73954;SDS011;62306;52.516;13.290;2023-02-17T10:37:41;34.45;;;18.77;;
73954;SDS011;62306;52.516;13.290;2023-02-17T10:40:13;34.85;;;20.10;;
73954;SDS011;62306;52.516;13.290;2023-02-17T10:42:44;32.85;;;20.23;;
73954;SDS011;62306;52.516;13.290;2023-02-17T10:45:14;30.98;;;19.45;;
73954;SDS011;62306;52.516;13.290;2023-02-17T10:47:46;31.02;;;19.02;;
73954;SDS011;62306;52.516;13.290;2023-02-17T10:50:15;30.92;;;18.98;;
73954;SDS011;62306;52.516;13.290;2023-02-17T10:52:47;32.83;;;19.55;;
73954;SDS011;62306;52.516;13.290;2023-02-17T10:55:18;28.52;;;19.88;;
73954;SDS011;62306;52.516;13.290;2023-02-17T11:00:17;31.08;;;18.88;;
73954;SDS011;62306;52.516;13.290;2023-02-17T11:02:45;30.52;;;19.40;;
73954;SDS011;62306;52.516;13.290;2023-02-17T11:05:22;28.23;;;18.52;;
73954;SDS011;62306;52.516;13.290;2023-02-17T11:07:55;33.50;;;19.95;;
73954;SDS011;62306;52.516;13.290;2023-02-17T11:10:26;33.67;;;20.38;;
73954;SDS011;62306;52.516;13.290;2023-02-17T11:12:56;32.75;;;20.23;;
73954;SDS011;62306;52.516;13.290;2023-02-17T11:15:26;32.28;;;19.92;;
73954;SDS011;62306;52.516;13.290;2023-02-17T11:17:58;31.75;;;20.33;;
73954;SDS011;62306;52.516;13.290;2023-02-17T11:20:28;34.40;;;20.75;;
73954;SDS011;62306;52.516;13.290;2023-02-17T11:23:06;34.90;;;19.90;;
73954;SDS011;62306;52.516;13.290;2023-02-17T11:25:54;31.75;;;19.35;;
73954;SDS011;62306;52.516;13.290;2023-02-17T11:28:24;31.58;;;18.67;;
73954;SDS011;62306;52.516;13.290;2023-02-17T11:30:52;30.15;;;18.15;;
73954;SDS011;62306;52.516;13.290;2023-02-17T11:33:21;30.95;;;18.63;;
73954;SDS011;62306;52.516;13.290;2023-02-17T11:35:54;31.73;;;18.15;;
73954;SDS011;62306;52.516;13.290;2023-02-17T11:38:26;30.08;;;18.13;;
73954;SDS011;62306;52.516;13.290;2023-02-17T11:40:55;30.55;;;18.02;;
73954;SDS011;62306;52.516;13.290;2023-02-17T11:43:24;27.25;;;17.17;;
73954;SDS011;62306;52.516;13.290;2023-02-17T11:46:10;32.78;;;17.73;;
73954;SDS011;62306;52.516;13.290;2023-02-17T11:49:01;31.73;;;19.45;;
73954;SDS011;62306;52.516;13.290;2023-02-17T11:51:51;30.95;;;18.85;;
73954;SDS011;62306;52.516;13.290;2023-02-17T11:54:30;30.35;;;18.30;;
73954;SDS011;62306;52.516;13.290;2023-02-17T11:57:12;26.65;;;17.25;;
73954;SDS011;62306;52.516;13.290;2023-02-17T12:00:01;25.77;;;16.27;;
73954;SDS011;62306;52.516;13.290;2023-02-17T12:02:43;26.58;;;16.40;;
73954;SDS011;62306;52.516;13.290;2023-02-17T12:05:30;33.45;;;20.35;;
73954;SDS011;62306;52.516;13.290;2023-02-17T12:08:09;29.30;;;18.40;;
73954;SDS011;62306;52.516;13.290;2023-02-17T12:10:47;24.23;;;14.82;;
73954;SDS011;62306;52.516;13.290;2023-02-17T12:13:28;21.70;;;15.50;;
73954;SDS011;62306;52.516;13.290;2023-02-17T12:16:07;26.05;;;14.85;;
73954;SDS011;62306;52.516;13.290;2023-02-17T12:18:52;27.88;;;15.45;;
73954;SDS011;62306;52.516;13.290;2023-02-17T12:21:36;22.00;;;13.80;;
73954;SDS011;62306;52.516;13.290;2023-02-17T12:24:16;21.50;;;13.15;;
73954;SDS011;62306;52.516;13.290;2023-02-17T12:26:58;19.67;;;12.57;;
73954;SDS011;62306;52.516;13.290;2023-02-17T12:29:36;20.27;;;13.32;;
73954;SDS011;62306;52.516;13.290;2023-02-17T12:32:20;18.80;;;12.82;;
73954;SDS011;62306;52.516;13.290;2023-02-17T12:34:58;21.35;;;12.20;;
73954;SDS011;62306;52.516;13.290;2023-02-17T12:37:30;21.55;;;11.50;;
73954;SDS011;62306;52.516;13.290;2023-02-17T12:40:00;19.05;;;12.80;;
73954;SDS011;62306;52.516;13.290;2023-02-17T12:42:31;17.92;;;12.02;;
73954;SDS011;62306;52.516;13.290;2023-02-17T12:45:02;24.58;;;14.38;;
73954;SDS011;62306;52.516;13.290;2023-02-17T12:47:33;16.67;;;10.75;;
73954;SDS011;62306;52.516;13.290;2023-02-17T12:50:10;15.13;;;10.45;;
73954;SDS011;62306;52.516;13.290;2023-02-17T12:52:45;15.15;;;9.88;;
73954;SDS011;62306;52.516;13.290;2023-02-17T12:55:17;18.85;;;10.65;;
73954;SDS011;62306;52.516;13.290;2023-02-17T12:57:49;16.02;;;9.63;;
73954;SDS011;62306;52.516;13.290;2023-02-17T13:00:22;12.80;;;8.48;;
73954;SDS011;62306;52.516;13.290;2023-02-17T13:02:56;16.25;;;9.85;;
73954;SDS011;62306;52.516;13.290;2023-02-17T13:05:24;15.52;;;9.07;;
73954;SDS011;62306;52.516;13.290;2023-02-17T13:07:55;15.35;;;9.63;;
73954;SDS011;62306;52.516;13.290;2023-02-17T13:10:27;17.27;;;10.43;;
73954;SDS011;62306;52.516;13.290;2023-02-17T13:13:00;13.85;;;8.73;;
73954;SDS011;62306;52.516;13.290;2023-02-17T13:15:30;16.88;;;10.80;;
73954;SDS011;62306;52.516;13.290;2023-02-17T13:20:50;13.02;;;7.80;;
73954;SDS011;62306;52.516;13.290;2023-02-17T13:23:27;12.10;;;8.13;;
73954;SDS011;62306;52.516;13.290;2023-02-17T13:26:05;11.68;;;8.25;;
73954;SDS011;62306;52.516;13.290;2023-02-17T13:28:50;13.80;;;7.78;;
73954;SDS011;62306;52.516;13.290;2023-02-17T13:31:25;15.55;;;8.10;;
73954;SDS011;62306;52.516;13.290;2023-02-17T13:33:53;11.57;;;7.75;;
73954;SDS011;62306;52.516;13.290;2023-02-17T13:36:35;10.88;;;7.68;;
73954;SDS011;62306;52.516;13.290;2023-02-17T13:39:04;11.68;;;7.50;;
73954;SDS011;62306;52.516;13.290;2023-02-17T13:41:52;9.15;;;6.88;;
73954;SDS011;62306;52.516;13.290;2023-02-17T13:44:28;11.85;;;7.60;;
73954;SDS011;62306;52.516;13.290;2023-02-17T13:46:57;12.05;;;7.65;;
73954;SDS011;62306;52.516;13.290;2023-02-17T13:49:27;14.10;;;8.43;;
73954;SDS011;62306;52.516;13.290;2023-02-17T13:52:05;15.50;;;9.68;;
73954;SDS011;62306;52.516;13.290;2023-02-17T13:54:49;12.55;;;7.95;;
73954;SDS011;62306;52.516;13.290;2023-02-17T13:57:21;17.30;;;9.75;;
73954;SDS011;62306;52.516;13.290;2023-02-17T13:59:50;11.07;;;7.97;;
73954;SDS011;62306;52.516;13.290;2023-02-17T14:02:18;9.73;;;6.63;;
73954;SDS011;62306;52.516;13.290;2023-02-17T14:04:46;11.07;;;7.30;;
73954;SDS011;62306;52.516;13.290;2023-02-17T14:07:13;14.70;;;7.47;;
73954;SDS011;62306;52.516;13.290;2023-02-17T14:09:40;10.98;;;6.90;;
73954;SDS011;62306;52.516;13.290;2023-02-17T14:12:22;9.43;;;6.68;;
73954;SDS011;62306;52.516;13.290;2023-02-17T14:14:51;9.60;;;7.03;;
73954;SDS011;62306;52.516;13.290;2023-02-17T14:17:28;12.05;;;8.30;;
73954;SDS011;62306;52.516;13.290;2023-02-17T14:19:56;8.43;;;5.97;;
73954;SDS011;62306;52.516;13.290;2023-02-17T14:22:25;11.02;;;7.32;;
73954;SDS011;62306;52.516;13.290;2023-02-17T14:24:58;12.45;;;7.20;;
73954;SDS011;62306;52.516;13.290;2023-02-17T14:27:26;11.18;;;7.00;;
73954;SDS011;62306;52.516;13.290;2023-02-17T14:29:55;9.30;;;6.85;;
73954;SDS011;62306;52.516;13.290;2023-02-17T14:32:25;9.68;;;7.18;;
73954;SDS011;62306;52.516;13.290;2023-02-17T14:35:04;12.82;;;7.28;;